Time;durP1;ratioP1;P1;durP2;ratioP2;P2;SDS_P1;SDS_P2;PMS_P1;PMS_P2;Temp;Humidity;BMP_temperature;BMP_pressure;BME280_temperature;BME280_humidity;BME280_pressure;Samples;Min_cycle;Max_cycle;Signal;HPM_P1;HPM_P2
2022/09/05 00:01:51;;;;;;;7.85;4.75;;;18.70;99.90;;;;;;5110613;28;20062;-86
2022/09/05 00:04:35;;;;;;;8.80;5.00;;;18.60;99.90;;;;;;5082709;28;20071;-86
2022/09/05 00:07:05;;;;;;;9.00;4.90;;;18.60;99.90;;;;;;5110406;28;20046;-87
2022/09/05 00:09:36;;;;;;;8.05;4.80;;;18.60;99.90;;;;;;5110624;28;20034;-87
2022/09/05 00:12:05;;;;;;;9.48;5.05;;;18.50;99.90;;;;;;5109826;28;20181;-86
2022/09/05 00:15:01;;;;;;;7.50;4.80;;;18.50;99.90;;;;;;5112085;28;20038;-86
2022/09/05 00:18:00;;;;;;;7.95;5.18;;;18.50;99.90;;;;;;5099300;28;20176;-85
2022/09/05 00:20:53;;;;;;;11.70;5.20;;;18.50;99.90;;;;;;5109766;28;20053;-87
2022/09/05 00:23:49;;;;;;;7.60;5.10;;;18.40;99.90;;;;;;5097798;28;20377;-86
2022/09/05 00:26:37;;;;;;;8.13;5.18;;;18.50;99.90;;;;;;5111866;28;20058;-86
2022/09/05 00:29:09;;;;;;;8.85;5.40;;;18.40;99.90;;;;;;5100272;28;20118;-86
2022/09/05 00:31:44;;;;;;;8.90;5.50;;;18.40;99.90;;;;;;5111794;28;20048;-86
2022/09/05 00:34:13;;;;;;;8.07;5.20;;;18.40;99.90;;;;;;5111699;28;20157;-86
2022/09/05 00:36:48;;;;;;;7.88;5.20;;;18.40;99.90;;;;;;5110230;28;20043;-86
2022/09/05 00:39:32;;;;;;;8.68;5.20;;;18.40;99.90;;;;;;5111421;28;20050;-85
2022/09/05 00:42:03;;;;;;;7.30;5.55;;;18.40;99.90;;;;;;5108896;28;20058;-86
2022/09/05 00:44:31;;;;;;;8.85;5.80;;;18.40;99.90;;;;;;5109291;28;20051;-86
2022/09/05 00:47:19;;;;;;;9.63;5.50;;;18.30;99.90;;;;;;5109610;28;20106;-86
2022/09/05 00:49:50;;;;;;;8.52;5.35;;;18.30;99.90;;;;;;5109863;28;20107;-86
2022/09/05 00:52:34;;;;;;;9.32;5.53;;;18.30;99.90;;;;;;5108139;28;20084;-86
2022/09/05 00:55:30;;;;;;;9.65;5.75;;;18.20;99.90;;;;;;5099467;28;20134;-86
2022/09/05 00:58:22;;;;;;;9.00;5.68;;;18.20;99.90;;;;;;5103903;28;20085;-85
2022/09/05 01:00:57;;;;;;;10.38;5.82;;;18.20;99.90;;;;;;5101956;28;20058;-86
2022/09/05 01:03:31;;;;;;;7.82;5.35;;;18.10;99.90;;;;;;5092587;28;20047;-86
2022/09/05 01:06:06;;;;;;;8.73;5.50;;;18.10;99.90;;;;;;5110179;28;20097;-85
2022/09/05 01:09:02;;;;;;;8.38;5.20;;;18.10;99.90;;;;;;5110754;28;20052;-85
2022/09/05 01:11:36;;;;;;;10.02;5.72;;;18.00;99.90;;;;;;5108922;28;20047;-86
2022/09/05 01:14:36;;;;;;;9.20;5.63;;;18.00;99.90;;;;;;5103695;28;20035;-85
2022/09/05 01:17:26;;;;;;;7.82;5.63;;;18.00;99.90;;;;;;5108950;28;20040;-86
2022/09/05 01:20:26;;;;;;;9.43;6.10;;;18.00;99.90;;;;;;5091895;28;20044;-86
2022/09/05 01:23:05;;;;;;;8.27;5.90;;;17.90;99.90;;;;;;5108889;28;20050;-86
2022/09/05 01:25:58;;;;;;;7.95;5.80;;;17.90;99.90;;;;;;5109965;28;20090;-86
2022/09/05 01:28:33;;;;;;;8.07;5.80;;;17.90;99.90;;;;;;5091994;28;20047;-86
2022/09/05 01:31:07;;;;;;;8.52;5.90;;;17.90;99.90;;;;;;5109335;28;20408;-87
2022/09/05 01:34:01;;;;;;;7.60;5.68;;;17.90;99.90;;;;;;5109052;28;20077;-86
2022/09/05 01:36:56;;;;;;;7.70;5.55;;;17.90;99.90;;;;;;5106028;28;20127;-86
2022/09/05 01:40:15;;;;;;;8.52;5.97;;;17.80;99.90;;;;;;5091833;28;20039;-87
2022/09/05 01:43:10;;;;;;;9.00;5.97;;;17.80;99.90;;;;;;5014122;28;20124;-86
2022/09/05 01:46:13;;;;;;;9.18;5.80;;;17.80;99.90;;;;;;4994645;28;20057;-86
2022/09/05 01:49:09;;;;;;;7.80;5.85;;;17.80;99.90;;;;;;5047282;28;20053;-86
2022/09/05 01:51:44;;;;;;;8.82;6.20;;;17.70;99.90;;;;;;5019188;28;20584;-86
2022/09/05 01:54:40;;;;;;;9.82;6.22;;;17.70;99.90;;;;;;5028469;28;20444;-86
2022/09/05 01:57:24;;;;;;;8.23;5.75;;;17.70;99.90;;;;;;5014862;28;20155;-85
2022/09/05 02:00:13;;;;;;;8.77;6.07;;;17.70;99.90;;;;;;5029205;28;20187;-86
2022/09/05 02:03:03;;;;;;;8.20;6.40;;;17.70;99.90;;;;;;5029152;28;20053;-86
2022/09/05 02:05:57;;;;;;;9.32;6.30;;;17.60;99.90;;;;;;5013567;28;20081;-86
2022/09/05 02:08:48;;;;;;;10.32;6.70;;;17.60;99.90;;;;;;4992478;28;20049;-86
2022/09/05 02:11:15;;;;;;;9.82;6.95;;;17.60;99.90;;;;;;5030027;28;20080;-86
2022/09/05 02:14:03;;;;;;;9.40;6.78;;;17.50;99.90;;;;;;5030607;28;20595;-86
2022/09/05 02:16:43;;;;;;;9.02;6.35;;;17.50;99.90;;;;;;5080132;28;20052;-86
2022/09/05 02:19:08;;;;;;;10.10;6.82;;;17.50;99.90;;;;;;5089239;28;20036;-86
2022/09/05 02:21:37;;;;;;;8.32;6.85;;;17.50;99.90;;;;;;5109909;28;20044;-86
2022/09/05 02:24:11;;;;;;;10.13;6.82;;;17.50;99.90;;;;;;5105749;28;20501;-86
2022/09/05 02:27:01;;;;;;;9.30;7.07;;;17.40;99.90;;;;;;5109405;28;20052;-86
2022/09/05 02:29:35;;;;;;;9.18;6.97;;;17.50;99.90;;;;;;5109212;28;20372;-87
2022/09/05 02:32:11;;;;;;;8.90;7.18;;;17.40;99.90;;;;;;5108413;28;20093;-86
2022/09/05 02:34:49;;;;;;;9.68;7.22;;;17.40;99.90;;;;;;5108892;28;20083;-86
2022/09/05 02:37:38;;;;;;;9.80;7.20;;;17.20;99.90;;;;;;5106885;28;20108;-86
2022/09/05 02:40:41;;;;;;;9.02;7.25;;;17.30;99.90;;;;;;5107232;28;20430;-85
2022/09/05 02:43:09;;;;;;;8.45;7.35;;;17.20;99.90;;;;;;5107099;28;20104;-86
2022/09/05 02:45:43;;;;;;;9.57;7.75;;;17.20;99.90;;;;;;5106071;28;20093;-85
2022/09/05 02:48:22;;;;;;;9.88;7.53;;;17.20;99.90;;;;;;5107239;28;20444;-86
2022/09/05 02:51:06;;;;;;;9.52;7.70;;;17.20;99.90;;;;;;5104832;28;20123;-86
2022/09/05 02:53:34;;;;;;;9.10;7.53;;;17.20;99.90;;;;;;5080912;28;20360;-86
2022/09/05 02:56:20;;;;;;;10.95;8.00;;;17.10;99.90;;;;;;5107720;28;20120;-86
2022/09/05 02:58:51;;;;;;;9.23;7.68;;;17.10;99.90;;;;;;5107775;28;20048;-86
2022/09/05 03:01:35;;;;;;;9.73;7.78;;;17.00;99.90;;;;;;5075519;28;20404;-86
2022/09/05 03:04:34;;;;;;;11.23;7.75;;;17.00;99.90;;;;;;5089302;28;20051;-86
2022/09/05 03:07:32;;;;;;;8.68;7.22;;;17.00;99.90;;;;;;5104874;28;20040;-86
2022/09/05 03:10:49;;;;;;;9.65;7.55;;;17.00;99.90;;;;;;5087109;28;20093;-86
2022/09/05 03:13:54;;;;;;;10.27;7.97;;;16.90;99.90;;;;;;5045293;28;20500;-86
2022/09/05 03:16:31;;;;;;;11.70;7.85;;;16.90;99.90;;;;;;5045735;28;20109;-86
2022/09/05 03:18:59;;;;;;;10.32;7.70;;;16.80;99.90;;;;;;5027838;28;20088;-85
2022/09/05 03:21:56;;;;;;;11.57;8.63;;;16.80;99.90;;;;;;5012257;28;20045;-86
2022/09/05 03:24:47;;;;;;;11.68;8.18;;;16.80;99.90;;;;;;5028558;28;20071;-86
2022/09/05 03:27:55;;;;;;;10.75;8.48;;;16.80;99.90;;;;;;5028941;28;20041;-86
2022/09/05 03:30:21;;;;;;;9.00;7.85;;;16.80;99.90;;;;;;5028383;28;20135;-86
2022/09/05 03:33:16;;;;;;;11.55;8.55;;;16.70;99.90;;;;;;5029728;28;20476;-86
2022/09/05 03:35:50;;;;;;;11.70;9.13;;;16.70;99.90;;;;;;5029278;28;20531;-86
2022/09/05 03:38:53;;;;;;;10.00;8.55;;;16.70;99.90;;;;;;5028760;28;20078;-86
2022/09/05 03:41:48;;;;;;;12.02;8.98;;;16.60;99.90;;;;;;5043787;28;20049;-85
2022/09/05 03:44:29;;;;;;;10.13;8.88;;;16.60;99.90;;;;;;5045648;28;20328;-85
2022/09/05 03:47:12;;;;;;;11.48;8.98;;;16.60;99.90;;;;;;5033953;28;20045;-85
2022/09/05 03:50:00;;;;;;;11.18;8.85;;;16.60;99.90;;;;;;5102559;28;20054;-86
2022/09/05 03:52:43;;;;;;;12.50;8.88;;;16.60;99.90;;;;;;5106742;28;20060;-86
2022/09/05 03:55:46;;;;;;;9.50;7.72;;;16.60;99.90;;;;;;5107402;28;20059;-86
2022/09/05 03:58:33;;;;;;;10.18;8.15;;;16.60;99.90;;;;;;5090376;28;20061;-86
2022/09/05 04:01:11;;;;;;;10.98;8.25;;;16.60;99.90;;;;;;5104752;28;20414;-86
2022/09/05 04:03:49;;;;;;;11.57;8.93;;;16.50;99.90;;;;;;5109434;28;20056;-85
2022/09/05 04:06:21;;;;;;;9.93;8.00;;;16.50;99.90;;;;;;5091161;28;20051;-85
2022/09/05 04:09:08;;;;;;;10.60;9.00;;;16.50;99.90;;;;;;5107428;28;20048;-86
2022/09/05 04:11:48;;;;;;;11.70;8.43;;;16.50;99.90;;;;;;5107163;28;20032;-86
2022/09/05 04:14:31;;;;;;;10.43;8.73;;;16.50;99.90;;;;;;5105883;28;20058;-86
2022/09/05 04:17:03;;;;;;;10.00;8.80;;;16.50;99.90;;;;;;5089629;28;20185;-86
2022/09/05 04:19:40;;;;;;;11.55;9.20;;;16.50;99.90;;;;;;5106559;28;20039;-86
2022/09/05 04:22:24;;;;;;;11.45;9.25;;;16.40;99.90;;;;;;5105070;28;20425;-86
2022/09/05 04:25:01;;;;;;;10.88;9.35;;;16.40;99.90;;;;;;5105411;28;20036;-86
2022/09/05 04:27:47;;;;;;;10.45;9.23;;;16.40;99.90;;;;;;5091481;28;20063;-85
2022/09/05 04:30:25;;;;;;;13.25;10.07;;;16.40;99.90;;;;;;5103619;28;20070;-86
2022/09/05 04:33:06;;;;;;;11.23;8.75;;;16.30;99.90;;;;;;5106507;28;20061;-86
2022/09/05 04:35:54;;;;;;;11.18;9.10;;;16.30;99.90;;;;;;5105627;28;20040;-85
2022/09/05 04:38:36;;;;;;;14.55;9.20;;;16.30;99.90;;;;;;5108880;28;20040;-86
2022/09/05 04:41:10;;;;;;;12.30;9.25;;;16.30;99.90;;;;;;5095427;28;20179;-85
2022/09/05 04:43:46;;;;;;;12.73;10.00;;;16.30;99.90;;;;;;5111840;28;20387;-85
2022/09/05 04:46:26;;;;;;;11.95;9.50;;;16.30;99.90;;;;;;5110395;28;20051;-86
2022/09/05 04:49:00;;;;;;;13.05;9.93;;;16.30;99.90;;;;;;5108325;28;20099;-85
2022/09/05 04:51:47;;;;;;;11.32;9.10;;;16.30;99.90;;;;;;5108700;28;20043;-86
2022/09/05 04:54:13;;;;;;;10.75;9.63;;;16.30;99.90;;;;;;5110830;28;20135;-86
2022/09/05 04:56:43;;;;;;;12.23;10.30;;;16.20;99.90;;;;;;5111002;28;20123;-86
2022/09/05 04:59:22;;;;;;;13.55;10.00;;;16.20;99.90;;;;;;5103356;28;20040;-86
2022/09/05 05:02:03;;;;;;;12.73;9.98;;;16.20;99.90;;;;;;5109618;28;20051;-84
2022/09/05 05:04:29;;;;;;;;;;;16.20;99.90;;;;;;5109773;28;20460;-86
2022/09/05 05:07:29;;;;;;;12.10;10.27;;;16.10;99.90;;;;;;5108485;28;20002;-86
2022/09/05 05:10:00;;;;;;;12.82;10.45;;;16.10;99.90;;;;;;5082348;28;20047;-85
2022/09/05 05:12:51;;;;;;;12.55;10.38;;;16.20;99.90;;;;;;5111137;28;20035;-86
2022/09/05 05:15:20;;;;;;;13.23;10.07;;;16.20;99.90;;;;;;5109464;28;20108;-86
2022/09/05 05:17:56;;;;;;;12.70;10.50;;;16.20;99.90;;;;;;5108076;28;20047;-85
2022/09/05 05:20:31;;;;;;;13.05;10.27;;;16.20;99.90;;;;;;5107431;28;20085;-86
2022/09/05 05:23:05;;;;;;;13.95;10.75;;;16.20;99.90;;;;;;5107744;28;20051;-85
2022/09/05 05:25:39;;;;;;;12.32;10.00;;;16.20;99.90;;;;;;5106607;28;20092;-85
2022/09/05 05:28:26;;;;;;;11.48;10.27;;;16.20;99.90;;;;;;5106070;28;20057;-85
2022/09/05 05:30:54;;;;;;;12.65;10.50;;;16.20;99.90;;;;;;5109327;28;20045;-86
2022/09/05 05:33:29;;;;;;;11.75;10.55;;;16.20;99.90;;;;;;5111980;27;20047;-86
2022/09/05 05:35:59;;;;;;;11.70;10.45;;;16.20;99.90;;;;;;5109071;28;20036;-85
2022/09/05 05:38:42;;;;;;;11.35;10.02;;;16.20;99.90;;;;;;5099249;28;20073;-84
2022/09/05 05:41:36;;;;;;;11.50;10.23;;;16.20;99.90;;;;;;5090548;28;20035;-86
2022/09/05 05:44:33;;;;;;;13.23;10.68;;;16.20;99.90;;;;;;5093551;28;20042;-86
2022/09/05 05:47:15;;;;;;;11.88;10.55;;;16.30;99.90;;;;;;5098155;28;20050;-85
2022/09/05 05:49:51;;;;;;;12.20;10.90;;;16.30;99.90;;;;;;5109097;28;20047;-86
2022/09/05 05:52:28;;;;;;;11.77;10.55;;;16.30;99.90;;;;;;5110341;28;20051;-85
2022/09/05 05:55:10;;;;;;;11.93;9.98;;;16.40;99.90;;;;;;5087540;28;20515;-85
2022/09/05 05:57:41;;;;;;;13.10;9.82;;;16.40;99.90;;;;;;5108943;28;20114;-85
2022/09/05 06:00:22;;;;;;;13.40;10.40;;;16.50;99.90;;;;;;5109283;28;20051;-86
2022/09/05 06:03:07;;;;;;;;;;;16.50;99.90;;;;;;5108480;28;20051;-86
2022/09/05 06:05:38;;;;;;;11.85;10.55;;;16.50;99.90;;;;;;5111234;28;19980;-85
2022/09/05 06:08:43;;;;;;;12.20;10.15;;;16.50;99.90;;;;;;5107305;28;20059;-85
2022/09/05 06:11:13;;;;;;;13.80;10.82;;;16.60;99.90;;;;;;5007915;28;20072;-85
2022/09/05 06:14:05;;;;;;;11.25;9.90;;;16.70;99.90;;;;;;5015757;28;20124;-85
2022/09/05 06:16:40;;;;;;;12.15;10.93;;;16.80;99.90;;;;;;5012873;28;20054;-86
2022/09/05 06:19:39;;;;;;;12.32;9.98;;;16.80;99.90;;;;;;5044274;28;20045;-89
2022/09/05 06:22:32;;;;;;;19.58;10.90;;;16.90;99.90;;;;;;5028667;28;20065;-87
2022/09/05 06:25:21;;;;;;;12.68;10.20;;;17.00;99.90;;;;;;5034034;28;20041;-88
2022/09/05 06:28:15;;;;;;;13.15;10.27;;;17.20;99.90;;;;;;5021220;28;20057;-88
2022/09/05 06:31:09;;;;;;;11.25;10.15;;;17.30;99.90;;;;;;5002661;28;20085;-89
2022/09/05 06:34:05;;;;;;;11.90;10.35;;;17.40;99.90;;;;;;5030528;28;20045;-89
2022/09/05 06:36:50;;;;;;;12.50;10.60;;;17.50;99.90;;;;;;5031080;28;20489;-91
2022/09/05 06:39:24;;;;;;;11.32;9.68;;;17.50;99.90;;;;;;5014818;28;20041;-89
2022/09/05 06:42:03;;;;;;;11.25;9.98;;;17.60;99.90;;;;;;5014912;28;20048;-89
2022/09/05 06:44:47;;;;;;;10.82;9.68;;;17.80;99.90;;;;;;5037651;28;20041;-88
2022/09/05 06:47:18;;;;;;;11.02;9.85;;;17.90;99.90;;;;;;5037019;28;20062;-87
2022/09/05 06:50:10;;;;;;;13.93;10.70;;;18.00;99.90;;;;;;5102774;28;20047;-87
2022/09/05 06:52:53;;;;;;;13.88;9.90;;;18.20;99.90;;;;;;5101665;28;20142;-88
2022/09/05 06:55:42;;;;;;;11.20;9.15;;;18.30;99.90;;;;;;5103345;28;20036;-88
2022/09/05 06:58:50;;;;;;;11.15;9.23;;;18.40;99.90;;;;;;5089016;28;20039;-86
2022/09/05 07:01:26;;;;;;;11.88;9.75;;;18.50;99.90;;;;;;5105164;28;20066;-87
2022/09/05 07:04:10;;;;;;;10.77;9.50;;;18.60;99.90;;;;;;5106628;28;20116;-89
2022/09/05 07:07:06;;;;;;;11.20;10.10;;;18.80;99.90;;;;;;5108502;28;20090;-88
2022/09/05 07:09:57;;;;;;;11.30;9.70;;;18.80;99.90;;;;;;5088858;28;20086;-87
2022/09/05 07:12:33;;;;;;;10.45;9.30;;;18.90;99.90;;;;;;5088434;28;20040;-87
2022/09/05 07:15:08;;;;;;;11.30;9.18;;;19.00;99.90;;;;;;5096600;28;20032;-88
2022/09/05 07:18:00;;;;;;;10.25;8.82;;;19.10;99.90;;;;;;5087177;28;20460;-87
2022/09/05 07:20:35;;;;;;;10.75;9.15;;;19.20;99.90;;;;;;5103679;28;20047;-87
2022/09/05 07:23:22;;;;;;;10.38;9.10;;;19.30;99.90;;;;;;5104629;28;20050;-87
2022/09/05 07:25:50;;;;;;;9.23;8.23;;;19.40;99.90;;;;;;5101251;28;20082;-86
2022/09/05 07:28:19;;;;;;;10.00;8.55;;;19.40;99.90;;;;;;5108327;28;20122;-86
2022/09/05 07:30:58;;;;;;;11.07;9.45;;;19.50;99.90;;;;;;5107553;28;20096;-85
2022/09/05 07:33:27;;;;;;;11.73;9.23;;;19.60;99.90;;;;;;5108573;28;20052;-87
2022/09/05 07:36:02;;;;;;;11.63;9.32;;;19.70;99.90;;;;;;5106191;28;20107;-88
2022/09/05 07:38:30;;;;;;;12.13;9.18;;;19.80;99.90;;;;;;5104476;28;20043;-86
2022/09/05 07:41:06;;;;;;;10.23;8.60;;;19.90;99.90;;;;;;5104125;28;20036;-88
2022/09/05 07:43:38;;;;;;;9.95;8.30;;;20.00;99.90;;;;;;5100882;28;20048;-87
2022/09/05 07:46:12;;;;;;;10.57;8.50;;;20.10;99.90;;;;;;5104752;28;20096;-87
2022/09/05 07:48:43;;;;;;;9.40;8.15;;;20.20;99.90;;;;;;5105946;28;20040;-86
2022/09/05 07:51:18;;;;;;;9.50;8.50;;;20.30;99.90;;;;;;5106564;28;20133;-87
2022/09/05 07:53:43;;;;;;;10.73;8.35;;;20.30;99.90;;;;;;5108941;28;20122;-88
2022/09/05 07:56:09;;;;;;;11.85;9.60;;;20.40;99.90;;;;;;5109359;28;20631;-88
2022/09/05 07:58:50;;;;;;;9.45;8.40;;;20.50;99.90;;;;;;5105604;28;20042;-88
2022/09/05 08:01:18;;;;;;;10.27;9.10;;;20.60;99.90;;;;;;5091509;28;20399;-90
2022/09/05 08:03:44;;;;;;;12.32;8.57;;;20.70;99.90;;;;;;5109177;28;20139;-88
2022/09/05 08:06:21;;;;;;;10.63;8.57;;;20.90;99.90;;;;;;5107547;28;20123;-86
2022/09/05 08:08:53;;;;;;;10.18;8.23;;;21.10;99.90;;;;;;5099270;28;20035;-88
2022/09/05 08:11:23;;;;;;;10.68;8.10;;;21.10;99.90;;;;;;5102682;28;20500;-89
2022/09/05 08:14:03;;;;;;;11.10;8.00;;;21.30;99.90;;;;;;5105365;28;20039;-89
2022/09/05 08:16:30;;;;;;;12.47;7.80;;;21.30;99.90;;;;;;5112898;27;20084;-89
2022/09/05 08:19:11;;;;;;;11.35;8.10;;;21.50;99.90;;;;;;5111244;28;20388;-88
2022/09/05 08:21:40;;;;;;;;;;;21.60;99.90;;;;;;5110139;28;20053;-88
2022/09/05 08:24:27;;;;;;;11.38;7.68;;;21.60;99.90;;;;;;5110957;28;19919;-89
2022/09/05 08:27:02;;;;;;;11.05;8.38;;;21.80;99.90;;;;;;5112560;28;20097;-89
2022/09/05 08:29:45;;;;;;;9.07;7.20;;;21.90;99.90;;;;;;5111798;28;20039;-87
2022/09/05 08:32:20;;;;;;;12.35;8.23;;;22.00;99.90;;;;;;5094542;28;20031;-90
2022/09/05 08:34:58;;;;;;;9.98;7.78;;;22.20;99.90;;;;;;5111398;28;20118;-89
2022/09/05 08:37:30;;;;;;;12.07;8.48;;;22.20;99.90;;;;;;5110271;28;20082;-88
2022/09/05 08:40:08;;;;;;;9.23;7.60;;;22.30;99.90;;;;;;5111816;28;20055;-90
2022/09/05 08:42:44;;;;;;;8.77;6.35;;;22.40;99.90;;;;;;5111328;28;20044;-89
2022/09/05 08:45:25;;;;;;;10.63;7.30;;;22.40;99.90;;;;;;5112561;28;20051;-91
2022/09/05 08:48:17;;;;;;;10.57;6.80;;;22.40;99.90;;;;;;5093420;28;20337;-89
2022/09/05 08:51:07;;;;;;;8.98;6.90;;;22.50;99.90;;;;;;5079977;28;20070;-88
2022/09/05 08:54:02;;;;;;;7.55;6.00;;;22.60;99.90;;;;;;5097631;28;20039;-89
2022/09/05 08:56:50;;;;;;;9.13;6.20;;;22.60;99.90;;;;;;5112057;28;20044;-90
2022/09/05 08:59:48;;;;;;;8.05;6.40;;;22.70;99.90;;;;;;5111285;28;20040;-89
2022/09/05 09:02:36;;;;;;;8.23;6.72;;;22.80;99.90;;;;;;5111221;28;20055;-88
2022/09/05 09:05:08;;;;;;;8.93;6.03;;;22.80;99.90;;;;;;5115669;28;20055;-90
2022/09/05 09:07:48;;;;;;;8.63;6.45;;;22.90;99.90;;;;;;5094464;28;20086;-90
2022/09/05 09:11:02;;;;;;;9.60;6.23;;;22.90;99.90;;;;;;5096199;28;20130;-89
2022/09/05 09:14:14;;;;;;;9.65;6.50;;;23.00;99.90;;;;;;5097964;28;20043;-88
2022/09/05 09:16:53;;;;;;;8.93;6.60;;;23.10;99.90;;;;;;5093638;28;20040;-91
2022/09/05 09:19:26;;;;;;;10.82;6.20;;;23.30;99.90;;;;;;5112488;28;20419;-89
2022/09/05 09:22:13;;;;;;;8.05;6.10;;;23.50;99.90;;;;;;5109851;28;20048;-90
2022/09/05 09:24:48;;;;;;;9.23;5.47;;;23.50;99.90;;;;;;5091780;28;20104;-90
2022/09/05 09:27:33;;;;;;;8.95;5.65;;;23.60;99.90;;;;;;5111438;28;20059;-89
2022/09/05 09:30:04;;;;;;;9.88;5.50;;;23.60;99.90;;;;;;5109707;28;20044;-90
2022/09/05 09:32:46;;;;;;;9.27;5.88;;;23.70;99.90;;;;;;5111119;28;20047;-90
2022/09/05 09:35:34;;;;;;;9.63;6.10;;;23.80;99.90;;;;;;5093122;28;20492;-88
2022/09/05 09:38:15;;;;;;;9.07;5.63;;;23.90;99.90;;;;;;5109436;28;20054;-90
2022/09/05 09:40:56;;;;;;;9.05;5.60;;;24.10;99.90;;;;;;5092293;28;20100;-91
2022/09/05 09:43:30;;;;;;;9.10;5.40;;;24.20;99.90;;;;;;5111853;28;20047;-89
2022/09/05 09:46:33;;;;;;;7.80;5.43;;;24.20;99.90;;;;;;5110876;28;20067;-89
2022/09/05 09:49:30;;;;;;;7.82;5.07;;;24.40;99.90;;;;;;5109376;28;20040;-89
2022/09/05 09:52:29;;;;;;;8.32;4.93;;;24.50;99.90;;;;;;5109882;28;20395;-90
2022/09/05 09:55:32;;;;;;;7.82;4.90;;;24.50;99.90;;;;;;5090891;28;20476;-90
2022/09/05 09:58:28;;;;;;;9.43;4.60;;;24.70;99.90;;;;;;5092172;28;20114;-91
2022/09/05 10:01:13;;;;;;;7.38;4.95;;;24.80;99.90;;;;;;5109208;28;20051;-89
2022/09/05 10:04:10;;;;;;;7.00;4.70;;;24.90;99.90;;;;;;5110938;28;20063;-89
2022/09/05 10:07:11;;;;;;;6.93;4.50;;;24.90;99.90;;;;;;5110118;28;20062;-90
2022/09/05 10:10:04;;;;;;;9.30;4.93;;;25.00;99.90;;;;;;5107294;28;20047;-90
2022/09/05 10:12:45;;;;;;;9.30;4.93;;;25.10;99.90;;;;;;5107422;28;20047;-89
2022/09/05 10:15:30;;;;;;;8.25;4.60;;;25.20;99.90;;;;;;5110941;28;20085;-89
2022/09/05 10:18:16;;;;;;;7.32;4.20;;;25.20;99.90;;;;;;5061105;28;20134;-91
2022/09/05 10:20:52;;;;;;;6.75;4.10;;;25.30;99.90;;;;;;5111630;28;20043;-90
2022/09/05 10:23:44;;;;;;;8.75;4.90;;;25.30;99.90;;;;;;5110311;28;20048;-87
2022/09/05 10:26:35;;;;;;;6.70;4.20;;;25.40;99.90;;;;;;5102045;28;20126;-92
2022/09/05 10:29:31;;;;;;;6.78;4.50;;;25.50;99.90;;;;;;5101220;28;20075;-88
2022/09/05 10:32:07;;;;;;;8.13;4.80;;;25.60;99.90;;;;;;5046902;28;20147;-86
2022/09/05 10:34:55;;;;;;;7.25;4.95;;;25.80;99.90;;;;;;5101864;28;20044;-86
2022/09/05 10:37:26;;;;;;;7.88;4.25;;;25.90;99.90;;;;;;5091829;28;20128;-86
2022/09/05 10:39:56;;;;;;;7.55;4.53;;;25.90;99.90;;;;;;5094834;28;20512;-87
2022/09/05 10:42:42;;;;;;;9.30;5.03;;;26.00;99.90;;;;;;5105857;28;20150;-88
2022/09/05 10:45:49;;;;;;;8.75;4.80;;;26.10;99.90;;;;;;5106029;28;20052;-89
2022/09/05 10:48:47;;;;;;;7.38;4.47;;;26.10;99.90;;;;;;5093799;28;20048;-93
2022/09/05 10:51:28;;;;;;;7.32;5.15;;;26.00;99.90;;;;;;5105485;28;20590;-87
2022/09/05 10:54:35;;;;;;;7.75;4.97;;;26.00;99.90;;;;;;5106842;28;20047;-86
2022/09/05 10:57:45;;;;;;;7.63;4.47;;;25.90;99.40;;;;;;5105259;28;20499;-87
2022/09/05 11:00:40;;;;;;;11.80;4.43;;;25.90;99.10;;;;;;5092208;28;20083;-87
2022/09/05 11:03:12;;;;;;;7.68;3.85;;;25.90;99.60;;;;;;5092837;28;20640;-91
2022/09/05 11:05:50;;;;;;;7.95;3.95;;;26.00;99.40;;;;;;5112697;28;20138;-88
2022/09/05 11:08:31;;;;;;;8.05;4.22;;;26.00;99.20;;;;;;5107794;28;20052;-87
2022/09/05 11:11:22;;;;;;;5.90;3.80;;;26.00;99.10;;;;;;5108792;28;20043;-86
2022/09/05 11:13:57;;;;;;;7.53;3.80;;;26.10;98.70;;;;;;5108106;28;20044;-86
2022/09/05 11:16:50;;;;;;;5.47;3.47;;;26.20;99.00;;;;;;5106194;28;20043;-91
2022/09/05 11:19:30;;;;;;;6.70;3.20;;;26.30;98.40;;;;;;5110147;28;20036;-92
2022/09/05 11:22:04;;;;;;;8.75;3.30;;;26.30;97.90;;;;;;5090094;28;20111;-89
2022/09/05 11:24:40;;;;;;;4.60;2.70;;;26.40;96.50;;;;;;5091727;28;20110;-90
2022/09/05 11:27:06;;;;;;;6.57;3.13;;;26.40;96.70;;;;;;5120887;28;20071;-89
2022/09/05 11:29:41;;;;;;;6.28;3.40;;;26.50;96.60;;;;;;5110422;28;20083;-92
2022/09/05 11:32:13;;;;;;;4.90;2.85;;;26.50;97.00;;;;;;5107456;28;20043;-91
2022/09/05 11:34:45;;;;;;;6.43;3.00;;;26.50;96.20;;;;;;5106959;28;20048;-92
2022/09/05 11:37:56;;;;;;;6.63;3.10;;;26.50;95.70;;;;;;5108843;28;20091;-90
2022/09/05 11:40:50;;;;;;;6.60;3.33;;;26.50;96.00;;;;;;5107513;28;20090;-90
2022/09/05 11:43:40;;;;;;;7.78;3.63;;;26.50;95.80;;;;;;5091614;28;20040;-90
2022/09/05 11:46:19;;;;;;;7.75;3.67;;;26.50;95.10;;;;;;5108068;28;20062;-90
2022/09/05 11:48:57;;;;;;;6.53;3.25;;;26.60;93.80;;;;;;5111421;28;20082;-90
2022/09/05 11:51:41;;;;;;;5.32;3.10;;;26.60;93.80;;;;;;5113536;28;20043;-89
2022/09/05 11:54:44;;;;;;;7.22;3.53;;;26.60;94.00;;;;;;5111984;28;20043;-89
2022/09/05 11:57:39;;;;;;;7.20;3.20;;;26.70;94.40;;;;;;5093993;28;20075;-96
2022/09/05 12:00:15;;;;;;;5.82;3.17;;;26.80;92.80;;;;;;5109895;28;20367;-95
2022/09/05 12:02:59;;;;;;;6.32;3.38;;;26.80;92.60;;;;;;5097032;28;20063;-88
2022/09/05 12:06:07;;;;;;;6.25;3.10;;;26.90;92.60;;;;;;5096522;28;20043;-95
2022/09/05 12:08:40;;;;;;;6.18;3.38;;;26.80;93.40;;;;;;5044804;28;20525;-92
2022/09/05 12:11:40;;;;;;;5.85;2.83;;;26.70;93.10;;;;;;5032816;28;20041;-88
2022/09/05 12:14:27;;;;;;;6.25;3.20;;;26.80;93.30;;;;;;5015291;28;20053;-90
2022/09/05 12:17:16;;;;;;;5.57;3.05;;;26.80;92.60;;;;;;5029688;28;20439;-91
2022/09/05 12:20:10;;;;;;;5.65;3.40;;;26.80;93.50;;;;;;5016770;28;20072;-87
2022/09/05 12:22:37;;;;;;;9.45;3.42;;;26.90;92.60;;;;;;5032797;28;20124;-88
2022/09/05 12:25:06;;;;;;;6.22;3.60;;;26.90;92.70;;;;;;5032460;28;20633;-88
2022/09/05 12:27:36;;;;;;;7.22;3.55;;;26.90;93.20;;;;;;5032437;28;20088;-88
2022/09/05 12:30:19;;;;;;;5.93;3.28;;;26.90;92.70;;;;;;5048940;28;20475;-87
2022/09/05 12:32:53;;;;;;;6.50;3.20;;;26.90;93.30;;;;;;5031610;28;20052;-87
2022/09/05 12:35:48;;;;;;;5.60;3.33;;;26.90;93.50;;;;;;5033199;28;20051;-87
2022/09/05 12:38:31;;;;;;;6.18;3.58;;;27.00;92.60;;;;;;5053945;28;20444;-87
2022/09/05 12:41:25;;;;;;;4.82;3.22;;;27.20;92.10;;;;;;5108969;28;20066;-87
2022/09/05 12:43:54;;;;;;;5.90;3.05;;;27.40;92.00;;;;;;5100431;28;20051;-86
2022/09/05 12:46:31;;;;;;;5.63;3.35;;;27.50;91.60;;;;;;5109385;28;20040;-89
2022/09/05 12:49:02;;;;;;;4.95;3.15;;;27.60;90.90;;;;;;5108789;28;20035;-88
2022/09/05 12:51:32;;;;;;;6.30;3.30;;;27.60;90.40;;;;;;5109337;28;20051;-88
2022/09/05 12:54:04;;;;;;;6.28;3.53;;;27.70;90.40;;;;;;5106430;28;20032;-90
2022/09/05 12:56:55;;;;;;;6.10;3.05;;;27.70;90.90;;;;;;5117981;27;20051;-89
2022/09/05 12:59:25;;;;;;;6.90;3.50;;;27.70;91.30;;;;;;5099906;28;20131;-90
2022/09/05 13:02:02;;;;;;;7.40;3.65;;;27.60;90.90;;;;;;5107992;28;20051;-89
2022/09/05 13:04:35;;;;;;;8.70;3.58;;;27.70;91.40;;;;;;5114334;28;20081;-89
2022/09/05 13:07:09;;;;;;;6.00;3.35;;;27.70;91.30;;;;;;5118978;28;20123;-88
2022/09/05 13:09:43;;;;;;;6.45;3.20;;;27.60;91.80;;;;;;5103854;28;20055;-90
2022/09/05 13:12:47;;;;;;;7.75;3.35;;;27.60;91.70;;;;;;5112304;28;20108;-90
2022/09/05 13:15:34;;;;;;;6.60;3.45;;;27.60;90.90;;;;;;5098519;28;20048;-90
2022/09/05 13:18:15;;;;;;;7.35;3.60;;;27.60;91.30;;;;;;5110657;28;20032;-89
2022/09/05 13:20:54;;;;;;;6.30;3.47;;;27.70;91.10;;;;;;5094143;28;20043;-90
2022/09/05 13:23:32;;;;;;;6.72;3.30;;;27.70;90.50;;;;;;5110409;28;20039;-91
2022/09/05 13:26:09;;;;;;;7.00;3.40;;;27.80;90.80;;;;;;5110840;28;20027;-92
2022/09/05 13:28:50;;;;;;;5.63;3.22;;;27.80;90.50;;;;;;5108675;28;20124;-91
2022/09/05 13:31:39;;;;;;;5.60;3.17;;;27.80;90.40;;;;;;5106999;28;20050;-90
2022/09/05 13:34:26;;;;;;;8.02;3.60;;;27.90;89.90;;;;;;5105173;28;20072;-89
2022/09/05 13:37:05;;;;;;;6.55;3.30;;;27.80;87.90;;;;;;5089901;28;20055;-86
2022/09/05 13:39:58;;;;;;;6.05;3.53;;;27.90;88.10;;;;;;5096878;28;20527;-87
2022/09/05 13:42:27;;;;;;;5.80;3.28;;;27.90;89.30;;;;;;5111632;28;20130;-89
2022/09/05 13:44:59;;;;;;;5.00;3.17;;;27.70;89.40;;;;;;5107050;28;20426;-90
2022/09/05 13:47:53;;;;;;;6.03;3.40;;;27.70;89.80;;;;;;5111066;28;20047;-87
2022/09/05 13:50:24;;;;;;;6.47;3.17;;;27.60;89.10;;;;;;5109627;28;20043;-87
2022/09/05 13:53:16;;;;;;;7.53;3.53;;;27.60;88.20;;;;;;5108700;28;20070;-88
2022/09/05 13:55:52;;;;;;;6.60;3.15;;;27.70;88.20;;;;;;5111237;28;20035;-89
2022/09/05 13:58:41;;;;;;;6.00;3.40;;;27.80;88.40;;;;;;5090385;28;20075;-88
2022/09/05 14:01:25;;;;;;;6.47;3.75;;;27.80;87.70;;;;;;5107332;28;20035;-91
2022/09/05 14:04:04;;;;;;;7.50;3.50;;;27.80;87.50;;;;;;5106719;28;20075;-87